sensor_id;sensor_type;location;lat;lon;timestamp;temperature;humidity
45906;DHT22;31619;49.008;12.106;2022-09-03T00:01:32;12.90;99.90
45906;DHT22;31619;49.008;12.106;2022-09-03T00:04:14;12.90;99.90
45906;DHT22;31619;49.008;12.106;2022-09-03T00:07:03;13.00;99.90
45906;DHT22;31619;49.008;12.106;2022-09-03T00:09:35;13.10;99.90
45906;DHT22;31619;49.008;12.106;2022-09-03T00:12:12;13.00;99.90
45906;DHT22;31619;49.008;12.106;2022-09-03T00:17:37;12.80;99.90
45906;DHT22;31619;49.008;12.106;2022-09-03T00:20:15;12.70;99.90
45906;DHT22;31619;49.008;12.106;2022-09-03T00:22:53;12.70;99.90
45906;DHT22;31619;49.008;12.106;2022-09-03T00:25:28;12.70;99.90
45906;DHT22;31619;49.008;12.106;2022-09-03T00:27:59;12.60;99.90
45906;DHT22;31619;49.008;12.106;2022-09-03T00:30:27;12.60;99.90
45906;DHT22;31619;49.008;12.106;2022-09-03T00:33:00;12.60;99.90
45906;DHT22;31619;49.008;12.106;2022-09-03T00:35:44;12.60;99.90
45906;DHT22;31619;49.008;12.106;2022-09-03T00:38:12;12.60;99.90
45906;DHT22;31619;49.008;12.106;2022-09-03T00:41:08;12.60;99.90
45906;DHT22;31619;49.008;12.106;2022-09-03T00:46:32;12.40;99.90
45906;DHT22;31619;49.008;12.106;2022-09-03T01:00:10;12.60;99.90
45906;DHT22;31619;49.008;12.106;2022-09-03T01:08:12;12.50;99.90
45906;DHT22;31619;49.008;12.106;2022-09-03T01:10:56;12.50;99.90
45906;DHT22;31619;49.008;12.106;2022-09-03T01:13:35;12.50;99.90
45906;DHT22;31619;49.008;12.106;2022-09-03T01:16:08;12.50;99.90
45906;DHT22;31619;49.008;12.106;2022-09-03T01:18:50;12.40;99.90
45906;DHT22;31619;49.008;12.106;2022-09-03T01:24:38;12.30;99.90
45906;DHT22;31619;49.008;12.106;2022-09-03T01:27:36;12.10;99.90
45906;DHT22;31619;49.008;12.106;2022-09-03T01:32:42;12.00;99.90
45906;DHT22;31619;49.008;12.106;2022-09-03T01:35:16;12.10;99.90
45906;DHT22;31619;49.008;12.106;2022-09-03T01:46:39;12.10;99.90
45906;DHT22;31619;49.008;12.106;2022-09-03T01:52:21;12.00;99.90
45906;DHT22;31619;49.008;12.106;2022-09-03T01:55:03;12.00;99.90
45906;DHT22;31619;49.008;12.106;2022-09-03T02:00:19;11.90;99.90
45906;DHT22;31619;49.008;12.106;2022-09-03T02:02:47;11.80;99.90
45906;DHT22;31619;49.008;12.106;2022-09-03T02:05:25;11.70;99.90
45906;DHT22;31619;49.008;12.106;2022-09-03T02:08:01;11.60;99.90
45906;DHT22;31619;49.008;12.106;2022-09-03T02:10:49;11.60;99.90
45906;DHT22;31619;49.008;12.106;2022-09-03T02:13:25;11.60;99.90
45906;DHT22;31619;49.008;12.106;2022-09-03T02:15:52;11.60;99.90
45906;DHT22;31619;49.008;12.106;2022-09-03T02:18:34;11.50;99.90
45906;DHT22;31619;49.008;12.106;2022-09-03T02:21:02;11.50;99.90
45906;DHT22;31619;49.008;12.106;2022-09-03T02:23:28;11.50;99.90
45906;DHT22;31619;49.008;12.106;2022-09-03T02:25:59;11.60;99.90
45906;DHT22;31619;49.008;12.106;2022-09-03T02:28:27;11.70;99.90
45906;DHT22;31619;49.008;12.106;2022-09-03T02:30:53;11.80;99.90
45906;DHT22;31619;49.008;12.106;2022-09-03T02:33:19;11.80;99.90
45906;DHT22;31619;49.008;12.106;2022-09-03T02:35:45;11.80;99.90
45906;DHT22;31619;49.008;12.106;2022-09-03T02:38:18;11.80;99.90
45906;DHT22;31619;49.008;12.106;2022-09-03T02:40:44;11.80;99.90
45906;DHT22;31619;49.008;12.106;2022-09-03T02:45:54;11.90;99.90
45906;DHT22;31619;49.008;12.106;2022-09-03T02:48:23;12.00;99.90
45906;DHT22;31619;49.008;12.106;2022-09-03T02:50:49;12.10;99.90
45906;DHT22;31619;49.008;12.106;2022-09-03T02:53:15;12.30;99.90
45906;DHT22;31619;49.008;12.106;2022-09-03T02:55:41;12.30;99.90
45906;DHT22;31619;49.008;12.106;2022-09-03T02:58:06;12.30;99.90
45906;DHT22;31619;49.008;12.106;2022-09-03T03:00:34;12.20;99.90
45906;DHT22;31619;49.008;12.106;2022-09-03T03:03:01;12.20;99.90
45906;DHT22;31619;49.008;12.106;2022-09-03T03:05:41;12.30;99.90
45906;DHT22;31619;49.008;12.106;2022-09-03T03:08:08;12.30;99.90
45906;DHT22;31619;49.008;12.106;2022-09-03T03:10:34;12.30;99.90
45906;DHT22;31619;49.008;12.106;2022-09-03T03:13:00;12.30;99.90
45906;DHT22;31619;49.008;12.106;2022-09-03T03:15:26;12.30;99.90
45906;DHT22;31619;49.008;12.106;2022-09-03T03:17:55;12.40;99.90
45906;DHT22;31619;49.008;12.106;2022-09-03T03:20:21;12.60;99.90
45906;DHT22;31619;49.008;12.106;2022-09-03T03:22:47;12.60;99.90
45906;DHT22;31619;49.008;12.106;2022-09-03T03:25:13;12.70;99.90
45906;DHT22;31619;49.008;12.106;2022-09-03T03:27:39;12.60;99.90
45906;DHT22;31619;49.008;12.106;2022-09-03T03:30:07;12.60;99.90
45906;DHT22;31619;49.008;12.106;2022-09-03T03:32:35;12.60;99.90
45906;DHT22;31619;49.008;12.106;2022-09-03T03:35:01;12.70;99.90
45906;DHT22;31619;49.008;12.106;2022-09-03T03:37:27;12.60;99.90
45906;DHT22;31619;49.008;12.106;2022-09-03T03:39:52;12.50;99.90
45906;DHT22;31619;49.008;12.106;2022-09-03T03:42:18;12.50;99.90
45906;DHT22;31619;49.008;12.106;2022-09-03T03:45:03;12.50;99.90
45906;DHT22;31619;49.008;12.106;2022-09-03T03:47:29;12.50;99.90
45906;DHT22;31619;49.008;12.106;2022-09-03T03:49:58;12.50;99.90
45906;DHT22;31619;49.008;12.106;2022-09-03T03:52:25;12.40;99.90
45906;DHT22;31619;49.008;12.106;2022-09-03T03:54:51;12.30;99.90
45906;DHT22;31619;49.008;12.106;2022-09-03T03:57:17;12.20;99.90
45906;DHT22;31619;49.008;12.106;2022-09-03T03:59:44;12.20;99.90
45906;DHT22;31619;49.008;12.106;2022-09-03T04:02:10;12.20;99.90
45906;DHT22;31619;49.008;12.106;2022-09-03T04:04:36;12.20;99.90
45906;DHT22;31619;49.008;12.106;2022-09-03T04:07:02;12.20;99.90
45906;DHT22;31619;49.008;12.106;2022-09-03T04:09:28;12.10;99.90
45906;DHT22;31619;49.008;12.106;2022-09-03T04:11:54;12.10;99.90
45906;DHT22;31619;49.008;12.106;2022-09-03T04:14:23;12.10;99.90
45906;DHT22;31619;49.008;12.106;2022-09-03T04:16:49;12.10;99.90
45906;DHT22;31619;49.008;12.106;2022-09-03T04:19:15;12.00;99.90
45906;DHT22;31619;49.008;12.106;2022-09-03T04:21:42;12.00;99.90
45906;DHT22;31619;49.008;12.106;2022-09-03T04:24:08;12.00;99.90
45906;DHT22;31619;49.008;12.106;2022-09-03T04:26:33;12.00;99.90
45906;DHT22;31619;49.008;12.106;2022-09-03T04:29:03;12.00;99.90
45906;DHT22;31619;49.008;12.106;2022-09-03T04:31:30;12.00;99.90
45906;DHT22;31619;49.008;12.106;2022-09-03T04:33:56;11.80;99.90
45906;DHT22;31619;49.008;12.106;2022-09-03T04:36:24;11.70;99.90
45906;DHT22;31619;49.008;12.106;2022-09-03T04:38:51;11.70;99.90
45906;DHT22;31619;49.008;12.106;2022-09-03T04:41:23;11.80;99.90
45906;DHT22;31619;49.008;12.106;2022-09-03T04:43:53;11.80;99.90
45906;DHT22;31619;49.008;12.106;2022-09-03T04:46:20;11.90;99.90
45906;DHT22;31619;49.008;12.106;2022-09-03T04:48:50;11.90;99.90
45906;DHT22;31619;49.008;12.106;2022-09-03T04:51:22;12.00;99.90
45906;DHT22;31619;49.008;12.106;2022-09-03T04:53:55;12.00;99.90
45906;DHT22;31619;49.008;12.106;2022-09-03T04:56:24;12.00;99.90
45906;DHT22;31619;49.008;12.106;2022-09-03T04:58:57;12.00;99.90
45906;DHT22;31619;49.008;12.106;2022-09-03T05:01:26;12.00;99.90
45906;DHT22;31619;49.008;12.106;2022-09-03T05:03:52;12.10;99.90
45906;DHT22;31619;49.008;12.106;2022-09-03T05:06:18;12.20;99.90
45906;DHT22;31619;49.008;12.106;2022-09-03T05:08:48;12.20;99.90
45906;DHT22;31619;49.008;12.106;2022-09-03T05:11:14;12.30;99.90
45906;DHT22;31619;49.008;12.106;2022-09-03T05:13:40;12.50;99.90
45906;DHT22;31619;49.008;12.106;2022-09-03T05:16:08;12.50;99.90
45906;DHT22;31619;49.008;12.106;2022-09-03T05:18:34;12.60;99.90
45906;DHT22;31619;49.008;12.106;2022-09-03T05:21:05;12.70;99.90
45906;DHT22;31619;49.008;12.106;2022-09-03T05:23:34;12.80;99.90
45906;DHT22;31619;49.008;12.106;2022-09-03T05:26:02;12.90;99.90
45906;DHT22;31619;49.008;12.106;2022-09-03T05:28:30;13.10;99.90
45906;DHT22;31619;49.008;12.106;2022-09-03T05:30:59;13.30;99.90
45906;DHT22;31619;49.008;12.106;2022-09-03T05:33:26;13.60;99.90
45906;DHT22;31619;49.008;12.106;2022-09-03T05:36:00;13.80;99.90
45906;DHT22;31619;49.008;12.106;2022-09-03T05:38:26;14.00;99.90
45906;DHT22;31619;49.008;12.106;2022-09-03T05:40:51;14.20;99.90
45906;DHT22;31619;49.008;12.106;2022-09-03T05:43:17;14.40;99.90
45906;DHT22;31619;49.008;12.106;2022-09-03T05:45:42;14.50;99.90
45906;DHT22;31619;49.008;12.106;2022-09-03T05:48:08;14.30;99.90
45906;DHT22;31619;49.008;12.106;2022-09-03T05:50:33;14.10;99.90
45906;DHT22;31619;49.008;12.106;2022-09-03T05:52:59;13.90;99.90
45906;DHT22;31619;49.008;12.106;2022-09-03T05:55:25;13.90;99.90
45906;DHT22;31619;49.008;12.106;2022-09-03T05:57:53;13.80;99.90
45906;DHT22;31619;49.008;12.106;2022-09-03T06:00:19;13.80;99.90
45906;DHT22;31619;49.008;12.106;2022-09-03T06:02:51;13.80;99.90
45906;DHT22;31619;49.008;12.106;2022-09-03T06:05:17;13.80;99.90
45906;DHT22;31619;49.008;12.106;2022-09-03T06:07:44;13.90;99.90
45906;DHT22;31619;49.008;12.106;2022-09-03T06:10:13;14.10;99.90
45906;DHT22;31619;49.008;12.106;2022-09-03T06:12:41;14.30;99.90
45906;DHT22;31619;49.008;12.106;2022-09-03T06:15:07;14.40;99.90
45906;DHT22;31619;49.008;12.106;2022-09-03T06:17:33;14.50;99.90
45906;DHT22;31619;49.008;12.106;2022-09-03T06:19:59;14.60;99.90
45906;DHT22;31619;49.008;12.106;2022-09-03T06:22:24;14.50;99.90
45906;DHT22;31619;49.008;12.106;2022-09-03T06:24:52;14.40;99.90
45906;DHT22;31619;49.008;12.106;2022-09-03T06:27:18;14.40;99.90
45906;DHT22;31619;49.008;12.106;2022-09-03T06:29:45;14.30;99.90
45906;DHT22;31619;49.008;12.106;2022-09-03T06:32:11;14.20;99.90
45906;DHT22;31619;49.008;12.106;2022-09-03T06:34:36;14.20;99.90
45906;DHT22;31619;49.008;12.106;2022-09-03T06:37:02;14.30;99.90
45906;DHT22;31619;49.008;12.106;2022-09-03T06:39:28;14.50;99.90
45906;DHT22;31619;49.008;12.106;2022-09-03T06:41:53;14.70;99.90
45906;DHT22;31619;49.008;12.106;2022-09-03T06:44:19;14.90;99.90
45906;DHT22;31619;49.008;12.106;2022-09-03T06:46:45;15.00;99.90
45906;DHT22;31619;49.008;12.106;2022-09-03T06:49:13;15.20;99.90
45906;DHT22;31619;49.008;12.106;2022-09-03T06:51:39;15.50;99.90
45906;DHT22;31619;49.008;12.106;2022-09-03T06:54:09;15.70;99.90
45906;DHT22;31619;49.008;12.106;2022-09-03T06:56:37;15.80;99.90
45906;DHT22;31619;49.008;12.106;2022-09-03T06:59:06;15.80;99.90
45906;DHT22;31619;49.008;12.106;2022-09-03T07:01:33;15.80;99.90
45906;DHT22;31619;49.008;12.106;2022-09-03T07:04:04;15.90;99.90
45906;DHT22;31619;49.008;12.106;2022-09-03T07:06:37;15.90;99.90
45906;DHT22;31619;49.008;12.106;2022-09-03T07:09:05;16.00;99.90
45906;DHT22;31619;49.008;12.106;2022-09-03T07:11:31;16.20;99.90
45906;DHT22;31619;49.008;12.106;2022-09-03T07:13:58;16.20;99.90
45906;DHT22;31619;49.008;12.106;2022-09-03T07:16:29;16.30;99.90
45906;DHT22;31619;49.008;12.106;2022-09-03T07:18:55;16.50;99.90
45906;DHT22;31619;49.008;12.106;2022-09-03T07:21:26;16.50;99.90
45906;DHT22;31619;49.008;12.106;2022-09-03T07:23:53;16.70;99.90
45906;DHT22;31619;49.008;12.106;2022-09-03T07:26:30;16.80;99.90
45906;DHT22;31619;49.008;12.106;2022-09-03T07:28:57;17.00;99.90
45906;DHT22;31619;49.008;12.106;2022-09-03T07:31:26;17.10;99.90
45906;DHT22;31619;49.008;12.106;2022-09-03T07:34:03;17.20;99.90
45906;DHT22;31619;49.008;12.106;2022-09-03T07:36:34;17.40;99.90
45906;DHT22;31619;49.008;12.106;2022-09-03T07:39:03;17.50;99.90
45906;DHT22;31619;49.008;12.106;2022-09-03T07:41:29;17.60;99.90
45906;DHT22;31619;49.008;12.106;2022-09-03T07:43:58;17.70;99.90
45906;DHT22;31619;49.008;12.106;2022-09-03T07:46:26;17.70;99.90
45906;DHT22;31619;49.008;12.106;2022-09-03T07:48:54;17.80;99.90
45906;DHT22;31619;49.008;12.106;2022-09-03T07:51:22;17.90;99.90
45906;DHT22;31619;49.008;12.106;2022-09-03T07:53:53;18.00;99.90
45906;DHT22;31619;49.008;12.106;2022-09-03T07:56:19;18.10;99.90
45906;DHT22;31619;49.008;12.106;2022-09-03T07:58:44;18.20;99.90
45906;DHT22;31619;49.008;12.106;2022-09-03T08:01:14;18.40;99.90
45906;DHT22;31619;49.008;12.106;2022-09-03T08:03:45;18.80;99.90
45906;DHT22;31619;49.008;12.106;2022-09-03T08:06:11;19.10;99.90
45906;DHT22;31619;49.008;12.106;2022-09-03T08:08:37;19.40;99.90
45906;DHT22;31619;49.008;12.106;2022-09-03T08:13:38;20.20;99.90
45906;DHT22;31619;49.008;12.106;2022-09-03T08:16:06;20.90;99.90
45906;DHT22;31619;49.008;12.106;2022-09-03T08:18:33;21.70;96.90
45906;DHT22;31619;49.008;12.106;2022-09-03T08:21:05;22.20;93.70
45906;DHT22;31619;49.008;12.106;2022-09-03T08:23:32;22.80;92.50
45906;DHT22;31619;49.008;12.106;2022-09-03T08:25:59;23.30;90.50
45906;DHT22;31619;49.008;12.106;2022-09-03T08:28:25;23.60;88.20
45906;DHT22;31619;49.008;12.106;2022-09-03T08:30:51;23.80;82.70
45906;DHT22;31619;49.008;12.106;2022-09-03T08:33:17;23.80;85.10
45906;DHT22;31619;49.008;12.106;2022-09-03T08:36:05;23.80;83.30
45906;DHT22;31619;49.008;12.106;2022-09-03T08:38:32;23.60;84.10
45906;DHT22;31619;49.008;12.106;2022-09-03T08:46:33;23.20;82.80
45906;DHT22;31619;49.008;12.106;2022-09-03T08:49:03;22.60;84.80
45906;DHT22;31619;49.008;12.106;2022-09-03T08:51:30;22.20;85.70
45906;DHT22;31619;49.008;12.106;2022-09-03T08:53:59;21.80;88.30
45906;DHT22;31619;49.008;12.106;2022-09-03T08:56:29;21.40;89.20
45906;DHT22;31619;49.008;12.106;2022-09-03T08:58:55;21.40;90.10
45906;DHT22;31619;49.008;12.106;2022-09-03T09:01:45;21.60;90.20
45906;DHT22;31619;49.008;12.106;2022-09-03T09:17:45;28.00;69.20
45906;DHT22;31619;49.008;12.106;2022-09-03T09:20:43;28.50;66.50
45906;DHT22;31619;49.008;12.106;2022-09-03T09:23:37;27.90;67.10
45906;DHT22;31619;49.008;12.106;2022-09-03T09:26:06;27.60;67.10
45906;DHT22;31619;49.008;12.106;2022-09-03T09:28:35;27.60;67.50
45906;DHT22;31619;49.008;12.106;2022-09-03T09:31:04;27.20;68.10
45906;DHT22;31619;49.008;12.106;2022-09-03T09:33:31;26.30;70.50
45906;DHT22;31619;49.008;12.106;2022-09-03T09:36:03;25.40;72.60
45906;DHT22;31619;49.008;12.106;2022-09-03T09:38:31;24.30;74.60
45906;DHT22;31619;49.008;12.106;2022-09-03T09:41:11;23.70;79.40
45906;DHT22;31619;49.008;12.106;2022-09-03T09:43:38;23.20;79.70
45906;DHT22;31619;49.008;12.106;2022-09-03T09:46:21;22.80;81.80
45906;DHT22;31619;49.008;12.106;2022-09-03T09:49:01;22.50;83.40
45906;DHT22;31619;49.008;12.106;2022-09-03T09:51:29;22.20;86.40
45906;DHT22;31619;49.008;12.106;2022-09-03T09:54:10;22.20;88.00
45906;DHT22;31619;49.008;12.106;2022-09-03T09:56:37;23.10;84.80
45906;DHT22;31619;49.008;12.106;2022-09-03T09:59:07;24.50;80.70
45906;DHT22;31619;49.008;12.106;2022-09-03T10:01:35;25.60;77.80
45906;DHT22;31619;49.008;12.106;2022-09-03T10:06:38;30.00;66.90
45906;DHT22;31619;49.008;12.106;2022-09-03T10:14:46;34.60;51.80
45906;DHT22;31619;49.008;12.106;2022-09-03T10:23:25;37.20;46.30
45906;DHT22;31619;49.008;12.106;2022-09-03T10:28:28;38.30;44.50
45906;DHT22;31619;49.008;12.106;2022-09-03T10:33:29;39.30;42.50
45906;DHT22;31619;49.008;12.106;2022-09-03T10:36:23;39.90;41.70
45906;DHT22;31619;49.008;12.106;2022-09-03T10:41:53;39.90;40.30
45906;DHT22;31619;49.008;12.106;2022-09-03T10:44:43;39.40;40.80
45906;DHT22;31619;49.008;12.106;2022-09-03T10:49:48;38.40;41.00
45906;DHT22;31619;49.008;12.106;2022-09-03T10:55:26;37.60;42.60
45906;DHT22;31619;49.008;12.106;2022-09-03T11:00:53;36.80;42.40
45906;DHT22;31619;49.008;12.106;2022-09-03T11:08:52;36.60;44.60
45906;DHT22;31619;49.008;12.106;2022-09-03T11:11:39;37.10;43.30
45906;DHT22;31619;49.008;12.106;2022-09-03T11:16:42;39.30;40.20
45906;DHT22;31619;49.008;12.106;2022-09-03T11:19:13;39.40;40.70
45906;DHT22;31619;49.008;12.106;2022-09-03T11:21:41;38.50;40.90
45906;DHT22;31619;49.008;12.106;2022-09-03T11:24:16;38.70;41.60
45906;DHT22;31619;49.008;12.106;2022-09-03T11:26:48;38.40;41.90
45906;DHT22;31619;49.008;12.106;2022-09-03T11:29:21;38.30;40.90
45906;DHT22;31619;49.008;12.106;2022-09-03T11:31:58;38.00;40.90
45906;DHT22;31619;49.008;12.106;2022-09-03T11:34:32;36.80;42.70
45906;DHT22;31619;49.008;12.106;2022-09-03T11:37:23;35.70;45.00
45906;DHT22;31619;49.008;12.106;2022-09-03T11:42:40;33.20;48.00
45906;DHT22;31619;49.008;12.106;2022-09-03T11:47:55;31.90;50.20
45906;DHT22;31619;49.008;12.106;2022-09-03T11:50:24;31.80;50.50
45906;DHT22;31619;49.008;12.106;2022-09-03T11:58:44;32.40;49.70
45906;DHT22;31619;49.008;12.106;2022-09-03T12:01:11;32.30;50.40
45906;DHT22;31619;49.008;12.106;2022-09-03T12:03:48;32.50;51.20
45906;DHT22;31619;49.008;12.106;2022-09-03T12:06:32;32.70;49.80
45906;DHT22;31619;49.008;12.106;2022-09-03T12:09:34;33.20;48.60
45906;DHT22;31619;49.008;12.106;2022-09-03T12:12:15;33.10;48.40
45906;DHT22;31619;49.008;12.106;2022-09-03T12:14:58;32.90;49.00
45906;DHT22;31619;49.008;12.106;2022-09-03T12:20:15;31.40;51.40
45906;DHT22;31619;49.008;12.106;2022-09-03T12:22:41;31.00;52.60
45906;DHT22;31619;49.008;12.106;2022-09-03T12:25:16;31.00;52.80
45906;DHT22;31619;49.008;12.106;2022-09-03T12:27:43;30.70;52.20
45906;DHT22;31619;49.008;12.106;2022-09-03T12:30:28;30.30;53.60
45906;DHT22;31619;49.008;12.106;2022-09-03T12:33:05;30.00;54.40
45906;DHT22;31619;49.008;12.106;2022-09-03T12:35:31;29.70;53.90
45906;DHT22;31619;49.008;12.106;2022-09-03T12:37:57;29.60;54.00
45906;DHT22;31619;49.008;12.106;2022-09-03T12:40:25;29.50;56.10
45906;DHT22;31619;49.008;12.106;2022-09-03T12:42:52;29.20;55.60
45906;DHT22;31619;49.008;12.106;2022-09-03T12:45:24;29.00;56.50
45906;DHT22;31619;49.008;12.106;2022-09-03T12:47:51;28.70;57.70
45906;DHT22;31619;49.008;12.106;2022-09-03T12:50:22;28.40;58.70
45906;DHT22;31619;49.008;12.106;2022-09-03T12:52:52;28.10;58.60
45906;DHT22;31619;49.008;12.106;2022-09-03T12:58:24;28.00;59.40
45906;DHT22;31619;49.008;12.106;2022-09-03T13:01:11;27.80;59.90
45906;DHT22;31619;49.008;12.106;2022-09-03T13:06:27;27.20;62.40
45906;DHT22;31619;49.008;12.106;2022-09-03T13:08:58;26.80;65.90
45906;DHT22;31619;49.008;12.106;2022-09-03T13:11:25;26.30;67.40
45906;DHT22;31619;49.008;12.106;2022-09-03T13:14:00;25.70;76.30
45906;DHT22;31619;49.008;12.106;2022-09-03T13:22:16;24.20;93.90
45906;DHT22;31619;49.008;12.106;2022-09-03T13:24:52;23.90;87.80
45906;DHT22;31619;49.008;12.106;2022-09-03T13:30:37;23.70;90.50
45906;DHT22;31619;49.008;12.106;2022-09-03T13:33:36;23.80;82.70
45906;DHT22;31619;49.008;12.106;2022-09-03T13:36:17;23.90;82.80
45906;DHT22;31619;49.008;12.106;2022-09-03T13:38:59;24.00;82.40
45906;DHT22;31619;49.008;12.106;2022-09-03T13:41:37;24.00;82.30
45906;DHT22;31619;49.008;12.106;2022-09-03T13:44:13;23.80;81.90
45906;DHT22;31619;49.008;12.106;2022-09-03T13:46:51;23.80;82.20
45906;DHT22;31619;49.008;12.106;2022-09-03T13:55:20;23.80;83.20
45906;DHT22;31619;49.008;12.106;2022-09-03T13:57:56;23.60;83.80
45906;DHT22;31619;49.008;12.106;2022-09-03T14:00:46;23.60;84.20
45906;DHT22;31619;49.008;12.106;2022-09-03T14:24:02;23.00;87.00
45906;DHT22;31619;49.008;12.106;2022-09-03T14:26:31;22.90;86.70
45906;DHT22;31619;49.008;12.106;2022-09-03T14:31:48;22.60;89.70
45906;DHT22;31619;49.008;12.106;2022-09-03T14:39:33;22.40;91.00
45906;DHT22;31619;49.008;12.106;2022-09-03T14:48:00;22.40;92.00
45906;DHT22;31619;49.008;12.106;2022-09-03T14:53:49;23.10;92.60
45906;DHT22;31619;49.008;12.106;2022-09-03T14:56:30;23.30;93.20
45906;DHT22;31619;49.008;12.106;2022-09-03T15:12:49;22.80;92.70
45906;DHT22;31619;49.008;12.106;2022-09-03T15:15:27;22.70;92.60
45906;DHT22;31619;49.008;12.106;2022-09-03T15:18:09;22.70;92.60
45906;DHT22;31619;49.008;12.106;2022-09-03T15:20:48;22.70;93.40
45906;DHT22;31619;49.008;12.106;2022-09-03T15:31:47;23.10;93.40
45906;DHT22;31619;49.008;12.106;2022-09-03T15:36:54;23.30;93.20
45906;DHT22;31619;49.008;12.106;2022-09-03T15:39:25;23.40;92.10
45906;DHT22;31619;49.008;12.106;2022-09-03T15:41:57;23.40;92.80
45906;DHT22;31619;49.008;12.106;2022-09-03T15:45:17;23.50;92.30
45906;DHT22;31619;49.008;12.106;2022-09-03T15:47:51;23.60;92.20
45906;DHT22;31619;49.008;12.106;2022-09-03T15:50:41;24.00;92.20
45906;DHT22;31619;49.008;12.106;2022-09-03T15:53:34;24.40;90.60
45906;DHT22;31619;49.008;12.106;2022-09-03T15:56:26;24.80;89.60
45906;DHT22;31619;49.008;12.106;2022-09-03T15:59:12;25.00;89.20
45906;DHT22;31619;49.008;12.106;2022-09-03T16:04:53;24.80;88.60
45906;DHT22;31619;49.008;12.106;2022-09-03T16:10:14;24.50;90.40
45906;DHT22;31619;49.008;12.106;2022-09-03T16:13:19;24.10;91.10
45906;DHT22;31619;49.008;12.106;2022-09-03T16:15:56;23.90;92.20
45906;DHT22;31619;49.008;12.106;2022-09-03T16:24:27;23.10;93.10
45906;DHT22;31619;49.008;12.106;2022-09-03T16:29:28;22.90;93.90
45906;DHT22;31619;49.008;12.106;2022-09-03T16:35:08;22.90;94.80
45906;DHT22;31619;49.008;12.106;2022-09-03T16:46:04;22.80;94.80
45906;DHT22;31619;49.008;12.106;2022-09-03T16:48:55;22.60;95.20
45906;DHT22;31619;49.008;12.106;2022-09-03T17:00:09;22.00;97.20
45906;DHT22;31619;49.008;12.106;2022-09-03T17:11:06;21.50;99.20
45906;DHT22;31619;49.008;12.106;2022-09-03T17:16:52;21.40;99.90
45906;DHT22;31619;49.008;12.106;2022-09-03T17:29:49;20.90;99.90
45906;DHT22;31619;49.008;12.106;2022-09-03T17:32:41;20.70;99.90
45906;DHT22;31619;49.008;12.106;2022-09-03T17:35:21;20.50;99.90
45906;DHT22;31619;49.008;12.106;2022-09-03T17:38:17;20.30;99.90
45906;DHT22;31619;49.008;12.106;2022-09-03T17:49:28;19.80;99.90
45906;DHT22;31619;49.008;12.106;2022-09-03T17:54:50;19.60;99.90
45906;DHT22;31619;49.008;12.106;2022-09-03T17:57:25;19.40;99.90
45906;DHT22;31619;49.008;12.106;2022-09-03T18:02:44;19.20;99.90
45906;DHT22;31619;49.008;12.106;2022-09-03T18:05:25;19.10;99.90
45906;DHT22;31619;49.008;12.106;2022-09-03T18:10:27;19.10;99.90
45906;DHT22;31619;49.008;12.106;2022-09-03T18:16:05;19.10;99.90
45906;DHT22;31619;49.008;12.106;2022-09-03T18:18:33;18.90;99.90
45906;DHT22;31619;49.008;12.106;2022-09-03T18:21:04;18.80;99.90
45906;DHT22;31619;49.008;12.106;2022-09-03T18:27:10;18.60;99.90
45906;DHT22;31619;49.008;12.106;2022-09-03T18:30:08;18.50;99.90
45906;DHT22;31619;49.008;12.106;2022-09-03T18:32:53;18.40;99.90
45906;DHT22;31619;49.008;12.106;2022-09-03T18:35:38;18.30;99.90
45906;DHT22;31619;49.008;12.106;2022-09-03T18:38:40;18.20;99.90
45906;DHT22;31619;49.008;12.106;2022-09-03T18:48:35;17.60;99.90
45906;DHT22;31619;49.008;12.106;2022-09-03T18:54:52;17.50;99.90
45906;DHT22;31619;49.008;12.106;2022-09-03T18:57:51;17.50;99.90
45906;DHT22;31619;49.008;12.106;2022-09-03T19:00:56;17.30;99.90
45906;DHT22;31619;49.008;12.106;2022-09-03T19:06:50;17.20;99.90
45906;DHT22;31619;49.008;12.106;2022-09-03T19:10:03;17.20;99.90
45906;DHT22;31619;49.008;12.106;2022-09-03T19:13:33;17.20;99.90
45906;DHT22;31619;49.008;12.106;2022-09-03T19:16:37;17.30;99.90
45906;DHT22;31619;49.008;12.106;2022-09-03T19:22:11;17.30;99.90
45906;DHT22;31619;49.008;12.106;2022-09-03T19:25:15;17.30;99.90
45906;DHT22;31619;49.008;12.106;2022-09-03T19:28:25;17.20;99.90
45906;DHT22;31619;49.008;12.106;2022-09-03T19:31:21;17.20;99.90
45906;DHT22;31619;49.008;12.106;2022-09-03T19:34:34;17.10;99.90
45906;DHT22;31619;49.008;12.106;2022-09-03T19:41:17;16.90;99.90
45906;DHT22;31619;49.008;12.106;2022-09-03T19:47:06;16.80;99.90
45906;DHT22;31619;49.008;12.106;2022-09-03T19:50:03;16.70;99.90
45906;DHT22;31619;49.008;12.106;2022-09-03T19:52:57;16.70;99.90
45906;DHT22;31619;49.008;12.106;2022-09-03T19:55:53;16.60;99.90
45906;DHT22;31619;49.008;12.106;2022-09-03T19:58:41;16.50;99.90
45906;DHT22;31619;49.008;12.106;2022-09-03T20:01:32;16.50;99.90
45906;DHT22;31619;49.008;12.106;2022-09-03T20:04:18;16.40;99.90
45906;DHT22;31619;49.008;12.106;2022-09-03T20:07:07;16.30;99.90
45906;DHT22;31619;49.008;12.106;2022-09-03T20:09:55;16.20;99.90
45906;DHT22;31619;49.008;12.106;2022-09-03T20:12:46;16.30;99.90
45906;DHT22;31619;49.008;12.106;2022-09-03T20:15:13;16.30;99.90
45906;DHT22;31619;49.008;12.106;2022-09-03T20:18:17;16.20;99.90
45906;DHT22;31619;49.008;12.106;2022-09-03T20:21:05;16.20;99.90
45906;DHT22;31619;49.008;12.106;2022-09-03T20:23:58;16.20;99.90
45906;DHT22;31619;49.008;12.106;2022-09-03T20:35:08;16.00;99.90
45906;DHT22;31619;49.008;12.106;2022-09-03T20:37:44;15.90;99.90
45906;DHT22;31619;49.008;12.106;2022-09-03T20:40:22;15.90;99.90
45906;DHT22;31619;49.008;12.106;2022-09-03T20:48:37;15.80;99.90
45906;DHT22;31619;49.008;12.106;2022-09-03T20:51:15;15.90;99.90
45906;DHT22;31619;49.008;12.106;2022-09-03T20:54:10;15.90;99.90
45906;DHT22;31619;49.008;12.106;2022-09-03T21:02:24;16.00;99.90
45906;DHT22;31619;49.008;12.106;2022-09-03T21:05:16;16.00;99.90
45906;DHT22;31619;49.008;12.106;2022-09-03T21:10:30;16.00;99.90
45906;DHT22;31619;49.008;12.106;2022-09-03T21:13:27;16.00;99.90
45906;DHT22;31619;49.008;12.106;2022-09-03T21:16:05;16.10;99.90
45906;DHT22;31619;49.008;12.106;2022-09-03T21:24:13;15.90;99.90
45906;DHT22;31619;49.008;12.106;2022-09-03T21:26:44;15.80;99.90
45906;DHT22;31619;49.008;12.106;2022-09-03T21:29:33;15.80;99.90
45906;DHT22;31619;49.008;12.106;2022-09-03T21:32:09;15.80;99.90
45906;DHT22;31619;49.008;12.106;2022-09-03T21:37:10;15.60;99.90